Time;durP1;ratioP1;P1;durP2;ratioP2;P2;SDS_P1;SDS_P2;PMS_P1;PMS_P2;Temp;Humidity;BMP_temperature;BMP_pressure;BME280_temperature;BME280_humidity;BME280_pressure;Samples;Min_cycle;Max_cycle;Signal;HPM_P1;HPM_P2
2023/06/12 00:00:52;;;;;;;16.57;11.90;;;18.10;99.90;;;;;;5070335;28;20053;-62
2023/06/12 00:03:25;;;;;;;14.07;12.50;;;18.10;99.90;;;;;;5069788;28;20312;-62
2023/06/12 00:05:58;;;;;;;16.20;11.63;;;18.10;99.90;;;;;;5053706;28;20481;-61
2023/06/12 00:08:29;;;;;;;16.80;12.18;;;18.10;99.90;;;;;;5069456;28;20063;-62
2023/06/12 00:10:57;;;;;;;15.85;12.82;;;18.00;99.90;;;;;;5068333;28;20509;-62
2023/06/12 00:13:25;;;;;;;16.88;13.43;;;18.00;99.90;;;;;;5067752;28;20044;-62
2023/06/12 00:15:53;;;;;;;18.30;12.30;;;18.00;99.90;;;;;;5068692;28;20040;-64
2023/06/12 00:18:21;;;;;;;19.95;14.25;;;18.00;99.90;;;;;;5069428;28;20064;-66
2023/06/12 00:20:48;;;;;;;23.15;14.88;;;17.90;99.90;;;;;;5069867;28;20404;-63
2023/06/12 00:23:16;;;;;;;22.77;16.75;;;18.00;99.90;;;;;;5066650;28;20040;-63
2023/06/12 00:25:44;;;;;;;24.60;17.02;;;17.90;99.90;;;;;;5068483;28;20381;-63
2023/06/12 00:28:12;;;;;;;23.52;17.65;;;17.90;99.90;;;;;;5063510;28;20040;-63
2023/06/12 00:30:40;;;;;;;27.20;18.98;;;17.90;99.90;;;;;;5067585;28;20491;-63
2023/06/12 00:33:07;;;;;;;29.20;19.27;;;17.90;99.90;;;;;;5060330;28;20045;-63
2023/06/12 00:35:35;;;;;;;33.00;20.83;;;17.90;99.90;;;;;;5067219;28;20048;-63
2023/06/12 00:38:03;;;;;;;30.10;22.17;;;17.90;99.90;;;;;;5069226;28;20083;-63
2023/06/12 00:40:31;;;;;;;37.50;22.90;;;17.90;99.90;;;;;;5069510;28;20052;-64
2023/06/12 00:42:58;;;;;;;37.65;24.80;;;17.90;99.90;;;;;;5047320;28;20053;-65
2023/06/12 00:45:26;;;;;;;34.78;23.98;;;17.90;99.90;;;;;;5084298;28;20407;-63
2023/06/12 00:47:57;;;;;;;37.13;25.35;;;17.90;99.90;;;;;;5084752;28;20484;-64
2023/06/12 00:50:28;;;;;;;37.72;25.98;;;17.90;99.90;;;;;;5068088;28;20057;-63
2023/06/12 00:52:57;;;;;;;43.53;28.30;;;17.90;99.90;;;;;;5065341;28;20051;-64
2023/06/12 00:55:27;;;;;;;;;;;17.90;99.90;;;;;;5068185;28;20056;-63
2023/06/12 00:57:55;;;;;;;42.03;27.83;;;17.90;99.90;;;;;;5063336;28;19935;-64
2023/06/12 01:00:24;;;;;;;42.70;28.40;;;17.90;99.90;;;;;;5049221;28;20392;-63
2023/06/12 01:03:06;;;;;;;49.45;29.83;;;17.90;99.90;;;;;;5048268;28;20044;-64
2023/06/12 01:05:38;;;;;;;49.08;30.95;;;17.90;99.90;;;;;;5083195;28;20257;-62
2023/06/12 01:08:26;;;;;;;50.17;30.17;;;17.90;99.90;;;;;;5071918;28;20051;-65
2023/06/12 01:10:58;;;;;;;48.67;29.63;;;17.90;99.90;;;;;;5067653;28;20767;-63
2023/06/12 01:13:26;;;;;;;45.60;29.27;;;17.90;99.90;;;;;;5060895;28;20049;-64
2023/06/12 01:15:54;;;;;;;44.78;30.08;;;17.90;99.90;;;;;;5067529;28;20056;-65
2023/06/12 01:18:22;;;;;;;41.70;28.00;;;17.90;99.90;;;;;;5066774;28;20397;-63
2023/06/12 01:20:53;;;;;;;46.05;29.80;;;17.90;99.90;;;;;;5067086;28;20510;-65
2023/06/12 01:23:39;;;;;;;45.63;28.45;;;17.90;99.90;;;;;;5065552;28;20395;-64
2023/06/12 01:26:10;;;;;;;45.28;29.17;;;17.90;99.90;;;;;;5047069;28;20515;-62
2023/06/12 01:29:03;;;;;;;39.78;29.60;;;17.90;99.90;;;;;;5038815;28;20064;-66
2023/06/12 01:31:43;;;;;;;43.20;29.90;;;17.90;99.90;;;;;;5055337;28;20036;-65
2023/06/12 01:34:27;;;;;;;46.03;30.40;;;17.90;99.90;;;;;;5050726;28;20032;-64
2023/06/12 01:37:05;;;;;;;45.28;30.70;;;17.90;99.90;;;;;;5038046;28;20052;-66
2023/06/12 01:39:40;;;;;;;52.15;31.27;;;17.90;99.90;;;;;;5072081;28;20036;-63
2023/06/12 01:42:08;;;;;;;47.95;31.40;;;17.90;99.90;;;;;;5069732;28;20519;-63
2023/06/12 01:44:36;;;;;;;47.75;30.95;;;17.90;99.90;;;;;;5066320;28;20392;-63
2023/06/12 01:47:04;;;;;;;53.00;34.97;;;17.80;99.90;;;;;;5047999;28;20049;-64
2023/06/12 01:49:32;;;;;;;50.47;34.63;;;17.80;99.90;;;;;;5050453;28;20037;-64
2023/06/12 01:52:01;;;;;;;50.03;34.90;;;17.90;99.90;;;;;;5050392;28;20053;-65
2023/06/12 01:54:33;;;;;;;53.10;34.53;;;17.90;99.90;;;;;;5057544;28;20044;-64
2023/06/12 01:57:02;;;;;;;53.25;35.58;;;17.90;99.90;;;;;;5070034;28;20036;-64
2023/06/12 01:59:34;;;;;;;54.35;35.90;;;17.80;99.90;;;;;;5069732;28;20048;-63
2023/06/12 02:02:02;;;;;;;57.15;36.67;;;17.80;99.90;;;;;;5054378;28;20045;-67
2023/06/12 02:04:42;;;;;;;58.95;36.45;;;17.80;99.90;;;;;;5050013;28;20052;-63
2023/06/12 02:07:10;;;;;;;56.42;35.85;;;17.80;99.90;;;;;;5055158;28;20499;-67
2023/06/12 02:09:38;;;;;;;52.03;35.30;;;17.80;99.90;;;;;;5071118;28;20055;-63
2023/06/12 02:12:07;;;;;;;57.45;36.65;;;17.80;99.90;;;;;;5071439;28;20051;-61
2023/06/12 02:14:36;;;;;;;54.53;32.53;;;17.80;99.90;;;;;;5053140;28;20044;-61
2023/06/12 02:17:04;;;;;;;57.45;36.75;;;17.80;99.90;;;;;;5071113;28;20053;-61
2023/06/12 02:19:33;;;;;;;54.85;34.88;;;17.70;99.90;;;;;;5071211;28;20099;-64
2023/06/12 02:22:01;;;;;;;53.33;33.95;;;17.70;99.90;;;;;;5070974;28;20400;-60
2023/06/12 02:24:31;;;;;;;52.95;34.33;;;17.70;99.90;;;;;;5060457;28;20033;-61
2023/06/12 02:27:02;;;;;;;51.65;34.08;;;17.70;99.90;;;;;;5049892;28;20052;-61
2023/06/12 02:29:30;;;;;;;53.92;32.78;;;17.70;99.90;;;;;;5050012;28;20033;-63
2023/06/12 02:31:59;;;;;;;49.93;30.33;;;17.70;99.90;;;;;;5049673;28;20049;-63
2023/06/12 02:34:27;;;;;;;49.35;30.90;;;17.70;99.90;;;;;;5054662;28;20401;-63
2023/06/12 02:36:56;;;;;;;44.58;31.50;;;17.60;99.90;;;;;;5071279;28;20049;-64
2023/06/12 02:39:27;;;;;;;46.03;30.58;;;17.70;99.90;;;;;;5076951;28;20041;-64
2023/06/12 02:41:55;;;;;;;45.05;29.52;;;17.60;99.90;;;;;;5063009;28;20049;-63
2023/06/12 02:44:23;;;;;;;47.22;31.42;;;17.60;99.90;;;;;;5046180;28;20064;-63
2023/06/12 02:46:58;;;;;;;50.00;31.25;;;17.60;99.90;;;;;;5046245;28;20068;-63
2023/06/12 02:49:32;;;;;;;45.28;31.13;;;17.60;99.90;;;;;;5048060;28;20055;-62
2023/06/12 02:52:00;;;;;;;49.72;31.45;;;17.60;99.90;;;;;;5045637;28;20428;-63
2023/06/12 02:54:30;;;;;;;46.20;31.00;;;17.50;99.90;;;;;;5052734;28;20053;-63
2023/06/12 02:57:00;;;;;;;51.13;30.27;;;17.50;99.90;;;;;;5069702;28;20519;-62
2023/06/12 02:59:28;;;;;;;44.53;29.50;;;17.50;99.90;;;;;;5069626;28;20052;-64
2023/06/12 03:02:00;;;;;;;44.78;30.20;;;17.60;99.90;;;;;;5069593;28;20048;-63
2023/06/12 03:04:45;;;;;;;43.97;29.92;;;17.60;99.90;;;;;;5055399;28;20053;-63
2023/06/12 03:07:16;;;;;;;50.90;33.35;;;17.60;99.90;;;;;;5070884;28;20111;-65
2023/06/12 03:09:44;;;;;;;50.67;32.30;;;17.60;99.90;;;;;;5065271;28;20045;-63
2023/06/12 03:12:12;;;;;;;50.17;29.50;;;17.60;99.90;;;;;;5054293;28;20059;-62
2023/06/12 03:14:42;;;;;;;43.95;30.33;;;17.60;99.90;;;;;;5059672;28;20498;-63
2023/06/12 03:17:09;;;;;;;54.95;30.25;;;17.60;99.90;;;;;;5056804;28;20380;-64
2023/06/12 03:19:38;;;;;;;45.60;31.38;;;17.60;99.90;;;;;;5055288;28;20049;-64
2023/06/12 03:22:05;;;;;;;50.97;30.85;;;17.70;99.90;;;;;;5070782;28;20056;-66
2023/06/12 03:24:33;;;;;;;49.33;31.60;;;17.70;99.90;;;;;;5067550;28;20036;-62
2023/06/12 03:27:01;;;;;;;47.17;30.35;;;17.70;99.90;;;;;;5050934;28;20476;-62
2023/06/12 03:29:30;;;;;;;45.85;29.98;;;17.70;99.90;;;;;;5057233;28;20503;-64
2023/06/12 03:31:58;;;;;;;51.47;31.08;;;17.70;99.90;;;;;;5068975;28;20049;-63
2023/06/12 03:34:36;;;;;;;41.85;28.08;;;17.70;99.90;;;;;;5069476;28;20049;-64
2023/06/12 03:37:05;;;;;;;50.25;29.42;;;17.70;99.90;;;;;;5069168;28;20051;-64
2023/06/12 03:39:33;;;;;;;44.15;29.38;;;17.70;99.90;;;;;;5069329;28;20051;-67
2023/06/12 03:42:01;;;;;;;50.15;30.73;;;17.70;99.90;;;;;;5062326;28;20075;-65
2023/06/12 03:44:37;;;;;;;47.00;29.30;;;17.70;99.90;;;;;;5043061;28;20602;-64
2023/06/12 03:47:05;;;;;;;42.13;29.55;;;17.70;99.90;;;;;;5069205;28;20418;-63
2023/06/12 03:49:33;;;;;;;40.25;27.17;;;17.70;99.90;;;;;;5072238;28;20049;-66
2023/06/12 03:52:01;;;;;;;46.05;28.20;;;17.70;99.90;;;;;;5073225;28;20044;-64
2023/06/12 03:54:28;;;;;;;45.38;28.38;;;17.70;99.90;;;;;;5070181;28;20041;-63
2023/06/12 03:56:56;;;;;;;40.92;27.67;;;17.70;99.90;;;;;;5070978;28;20056;-65
2023/06/12 03:59:23;;;;;;;42.28;26.80;;;17.70;99.90;;;;;;5053035;28;20045;-63
2023/06/12 04:01:52;;;;;;;37.75;27.15;;;17.70;99.90;;;;;;5071895;28;20049;-62
2023/06/12 04:04:20;;;;;;;45.53;26.05;;;17.70;99.90;;;;;;5072968;28;20048;-64
2023/06/12 04:06:48;;;;;;;43.95;27.30;;;17.70;99.90;;;;;;5074017;28;20045;-63
2023/06/12 04:09:17;;;;;;;39.47;26.15;;;17.70;99.90;;;;;;5088934;28;20067;-63
2023/06/12 04:11:46;;;;;;;33.35;23.77;;;17.70;99.90;;;;;;5067951;28;20045;-63
2023/06/12 04:14:14;;;;;;;34.60;22.67;;;17.70;99.90;;;;;;5059034;28;20041;-64
2023/06/12 04:16:42;;;;;;;34.20;23.33;;;17.70;99.90;;;;;;5072909;28;20040;-62
2023/06/12 04:19:12;;;;;;;40.58;23.48;;;17.70;99.90;;;;;;5071692;28;20044;-64
2023/06/12 04:21:39;;;;;;;34.20;24.35;;;17.70;99.90;;;;;;5071730;28;20040;-64
2023/06/12 04:24:15;;;;;;;35.85;25.08;;;17.70;99.90;;;;;;5071826;28;20060;-63
2023/06/12 04:26:46;;;;;;;33.00;23.95;;;17.70;99.90;;;;;;5071228;28;20051;-64
2023/06/12 04:29:16;;;;;;;36.75;24.33;;;17.80;99.90;;;;;;5073842;28;20051;-64
2023/06/12 04:31:44;;;;;;;;;;;17.70;99.90;;;;;;5077878;28;20396;-63
2023/06/12 04:34:15;;;;;;;35.90;24.58;;;17.80;99.90;;;;;;5056753;28;19920;-64
2023/06/12 04:36:45;;;;;;;34.63;23.90;;;17.80;99.90;;;;;;5049155;28;20489;-64
2023/06/12 04:39:13;;;;;;;47.75;26.60;;;17.80;99.90;;;;;;5084000;28;20036;-63
2023/06/12 04:41:41;;;;;;;40.42;26.42;;;17.80;99.90;;;;;;5072677;28;20489;-62
2023/06/12 04:44:10;;;;;;;38.70;24.67;;;17.80;99.90;;;;;;5058756;28;20376;-63
2023/06/12 04:46:40;;;;;;;45.67;28.73;;;17.80;99.90;;;;;;5070965;28;20648;-62
2023/06/12 04:49:08;;;;;;;48.55;28.10;;;17.90;99.90;;;;;;5060928;28;20037;-63
2023/06/12 04:51:38;;;;;;;42.35;28.40;;;17.90;99.90;;;;;;5091373;28;20052;-62
2023/06/12 04:54:08;;;;;;;50.58;30.05;;;17.90;99.90;;;;;;5082741;28;20040;-64
2023/06/12 04:56:40;;;;;;;55.92;33.58;;;17.90;99.90;;;;;;5060081;28;20041;-62
2023/06/12 04:59:08;;;;;;;56.50;34.50;;;17.90;99.90;;;;;;5052367;28;20049;-63
2023/06/12 05:01:38;;;;;;;65.30;41.00;;;18.00;99.90;;;;;;5067992;28;20044;-62
2023/06/12 05:04:08;;;;;;;69.50;43.10;;;18.00;99.90;;;;;;5059563;28;20400;-63
2023/06/12 05:06:39;;;;;;;64.45;40.38;;;18.00;99.90;;;;;;5064170;28;20495;-62
2023/06/12 05:09:07;;;;;;;65.88;41.17;;;17.90;99.90;;;;;;5086593;28;20047;-63
2023/06/12 05:11:35;;;;;;;63.72;41.17;;;18.00;99.90;;;;;;5045062;28;20397;-63
2023/06/12 05:14:05;;;;;;;72.07;44.00;;;18.00;99.90;;;;;;5035812;28;20045;-64
2023/06/12 05:16:33;;;;;;;71.88;42.58;;;18.00;99.90;;;;;;5044115;28;20289;-62
2023/06/12 05:19:00;;;;;;;77.35;44.10;;;18.00;99.90;;;;;;5048163;28;20052;-62
2023/06/12 05:21:30;;;;;;;75.38;44.25;;;18.00;99.90;;;;;;5079486;28;20044;-63
2023/06/12 05:24:00;;;;;;;68.32;43.15;;;18.10;99.90;;;;;;5058212;28;20072;-62
2023/06/12 05:26:29;;;;;;;74.85;47.05;;;18.10;99.90;;;;;;5044861;28;20049;-66
2023/06/12 05:28:56;;;;;;;82.95;47.15;;;18.10;99.90;;;;;;5045158;28;20069;-65
2023/06/12 05:31:25;;;;;;;79.63;46.33;;;18.20;99.90;;;;;;5043811;28;20041;-64
2023/06/12 05:33:54;;;;;;;80.03;47.13;;;18.20;99.90;;;;;;5064175;28;20330;-67
2023/06/12 05:36:22;;;;;;;78.82;47.58;;;18.30;99.90;;;;;;5086418;28;20067;-64
2023/06/12 05:38:50;;;;;;;79.95;46.78;;;18.30;99.90;;;;;;5082973;28;20048;-61
2023/06/12 05:41:18;;;;;;;70.10;45.15;;;18.40;99.90;;;;;;5060883;28;20045;-63
2023/06/12 05:43:49;;;;;;;79.85;46.13;;;18.50;99.90;;;;;;5052678;28;20059;-63
2023/06/12 05:46:17;;;;;;;72.90;44.90;;;18.60;99.90;;;;;;5044242;28;20044;-65
2023/06/12 05:48:44;;;;;;;73.65;45.10;;;18.60;99.90;;;;;;5047964;28;20051;-63
2023/06/12 05:51:13;;;;;;;80.18;46.90;;;18.70;99.90;;;;;;5064443;28;20044;-63
2023/06/12 05:53:44;;;;;;;73.65;45.65;;;18.70;99.90;;;;;;5063104;28;20455;-63
2023/06/12 05:56:14;;;;;;;81.25;47.35;;;18.80;99.90;;;;;;5049288;28;20447;-64
2023/06/12 05:58:44;;;;;;;74.10;44.78;;;18.80;99.90;;;;;;5064736;28;20472;-65
2023/06/12 06:01:16;;;;;;;81.43;48.10;;;18.90;99.90;;;;;;5063929;28;20045;-64
2023/06/12 06:03:54;;;;;;;75.70;45.55;;;18.90;99.90;;;;;;5066012;28;20040;-65
2023/06/12 06:06:23;;;;;;;69.57;44.58;;;19.00;99.90;;;;;;5066858;28;20241;-64
2023/06/12 06:08:53;;;;;;;73.60;46.92;;;19.00;99.90;;;;;;5066695;28;20041;-64
2023/06/12 06:11:21;;;;;;;78.53;45.75;;;19.10;99.90;;;;;;5061838;28;20035;-62
2023/06/12 06:13:49;;;;;;;73.85;45.13;;;19.10;99.90;;;;;;5063914;28;20066;-64
2023/06/12 06:16:18;;;;;;;70.47;44.28;;;19.10;99.90;;;;;;5056093;28;20508;-65
2023/06/12 06:18:46;;;;;;;68.32;43.40;;;19.20;99.90;;;;;;5060550;28;20036;-63
2023/06/12 06:21:13;;;;;;;71.85;43.42;;;19.30;99.90;;;;;;5084889;28;20506;-65
2023/06/12 06:23:41;;;;;;;69.88;42.78;;;19.30;99.90;;;;;;5077273;28;20037;-63
2023/06/12 06:26:10;;;;;;;68.65;43.38;;;19.40;99.90;;;;;;5063133;28;20056;-63
2023/06/12 06:28:38;;;;;;;71.63;43.47;;;19.50;99.90;;;;;;5058389;28;20036;-63
2023/06/12 06:31:07;;;;;;;67.00;43.67;;;19.60;99.90;;;;;;5071441;28;20368;-64
2023/06/12 06:33:35;;;;;;;67.07;43.08;;;19.70;99.90;;;;;;5070745;28;20068;-64
2023/06/12 06:36:02;;;;;;;67.78;43.00;;;19.80;99.90;;;;;;5070769;28;20048;-64
2023/06/12 06:38:30;;;;;;;69.10;42.90;;;20.00;99.90;;;;;;5077359;28;20060;-63
2023/06/12 06:40:59;;;;;;;59.05;40.05;;;20.10;99.90;;;;;;5068291;28;20048;-63
2023/06/12 06:43:30;;;;;;;60.17;38.42;;;20.20;99.90;;;;;;5052250;28;20060;-63
2023/06/12 06:45:59;;;;;;;61.30;37.72;;;20.20;99.90;;;;;;5056405;28;20045;-65
2023/06/12 06:48:28;;;;;;;57.47;36.97;;;20.30;99.90;;;;;;5058377;28;20045;-65
2023/06/12 06:50:57;;;;;;;53.05;36.97;;;20.30;99.90;;;;;;5060018;28;20320;-69
2023/06/12 06:53:25;;;;;;;56.13;36.50;;;20.30;99.90;;;;;;5056768;28;20032;-63
2023/06/12 06:55:54;;;;;;;60.65;35.88;;;20.40;99.90;;;;;;5051164;28;20388;-64
2023/06/12 06:58:23;;;;;;;60.35;39.03;;;;;;;;;;5053245;28;20517;-62
2023/06/12 07:00:52;;;;;;;55.47;34.13;;;20.50;99.90;;;;;;5063991;28;20040;-64
2023/06/12 07:03:20;;;;;;;47.90;32.72;;;20.50;99.90;;;;;;5062975;28;20036;-63
2023/06/12 07:05:49;;;;;;;46.63;33.47;;;20.60;99.90;;;;;;5071953;28;20067;-65
2023/06/12 07:08:17;;;;;;;52.40;35.10;;;20.60;99.90;;;;;;5046872;28;20033;-68
2023/06/12 07:10:45;;;;;;;51.45;33.83;;;20.70;99.90;;;;;;5075511;28;20047;-67
2023/06/12 07:13:13;;;;;;;43.53;31.30;;;20.70;99.90;;;;;;5064807;28;20033;-64
2023/06/12 07:15:51;;;;;;;48.10;32.40;;;20.80;99.90;;;;;;5052716;28;20379;-67
2023/06/12 07:18:20;;;;;;;44.20;30.38;;;20.80;99.90;;;;;;5049847;28;20072;-64
2023/06/12 07:20:48;;;;;;;50.95;31.95;;;20.90;99.90;;;;;;5060363;28;20399;-63
2023/06/12 07:23:16;;;;;;;48.15;33.55;;;20.90;99.90;;;;;;5067850;28;20488;-65
2023/06/12 07:25:44;;;;;;;47.13;32.25;;;21.00;99.90;;;;;;5070706;28;20045;-64
2023/06/12 07:28:12;;;;;;;45.50;33.90;;;21.00;99.90;;;;;;5057615;28;20048;-63
2023/06/12 07:30:40;;;;;;;47.17;34.10;;;21.00;99.90;;;;;;5076143;28;20609;-64
2023/06/12 07:33:10;;;;;;;47.97;34.30;;;21.10;99.90;;;;;;5065645;28;20049;-63
2023/06/12 07:35:39;;;;;;;50.65;35.70;;;21.20;99.90;;;;;;5065185;28;20045;-65
2023/06/12 07:38:07;;;;;;;50.30;34.78;;;21.30;99.90;;;;;;5065840;28;20052;-64
2023/06/12 07:40:35;;;;;;;54.47;37.05;;;21.30;99.90;;;;;;5062764;28;20047;-64
2023/06/12 07:43:05;;;;;;;;;;;21.40;99.90;;;;;;5068745;28;20056;-64
2023/06/12 07:45:37;;;;;;;50.78;36.00;;;21.40;99.90;;;;;;5068067;28;19920;-60
2023/06/12 07:48:05;;;;;;;48.17;33.97;;;21.50;99.90;;;;;;5046256;28;20588;-62
2023/06/12 07:50:39;;;;;;;51.40;34.97;;;21.50;99.90;;;;;;5057313;28;20037;-61
2023/06/12 07:53:07;;;;;;;49.72;36.08;;;21.60;99.90;;;;;;5065418;28;20044;-62
2023/06/12 07:55:52;;;;;;;53.88;35.47;;;21.70;99.90;;;;;;5036220;28;20484;-62
2023/06/12 07:58:27;;;;;;;49.15;34.97;;;21.70;99.90;;;;;;5062194;28;20063;-67
2023/06/12 08:00:55;;;;;;;55.70;35.95;;;21.70;99.90;;;;;;5061074;28;20048;-64
2023/06/12 08:03:28;;;;;;;53.55;35.20;;;21.80;99.90;;;;;;5049366;28;20056;-64
2023/06/12 08:06:00;;;;;;;52.88;35.40;;;21.80;99.90;;;;;;5031475;28;20179;-68
2023/06/12 08:08:42;;;;;;;53.53;34.92;;;21.80;99.90;;;;;;5076076;28;20047;-68
2023/06/12 08:11:11;;;;;;;50.17;34.33;;;21.80;99.90;;;;;;5051485;28;20071;-68
2023/06/12 08:13:40;;;;;;;46.90;31.95;;;21.90;99.90;;;;;;5058488;28;20059;-69
2023/06/12 08:16:09;;;;;;;39.28;28.45;;;22.10;99.90;;;;;;5072255;28;20048;-68
2023/06/12 08:18:37;;;;;;;39.50;27.33;;;22.20;99.90;;;;;;5053874;28;20829;-69
2023/06/12 08:21:05;;;;;;;16.17;12.27;;;22.30;99.90;;;;;;5085372;28;20051;-68
2023/06/12 08:23:34;;;;;;;15.55;12.80;;;22.40;99.90;;;;;;5087142;28;20046;-64
2023/06/12 08:26:06;;;;;;;15.93;12.20;;;22.50;99.90;;;;;;5051513;28;20095;-63
2023/06/12 08:28:37;;;;;;;15.07;12.48;;;22.60;99.90;;;;;;5065545;28;20301;-66
2023/06/12 08:31:10;;;;;;;17.02;12.38;;;22.70;99.90;;;;;;5062843;28;20420;-62
2023/06/12 08:33:40;;;;;;;16.92;12.30;;;22.90;99.90;;;;;;5051811;28;20052;-63
2023/06/12 08:36:08;;;;;;;17.70;12.70;;;23.00;99.90;;;;;;5068058;28;20396;-62
2023/06/12 08:38:36;;;;;;;15.63;12.13;;;23.10;99.90;;;;;;5068500;28;20545;-62
2023/06/12 08:41:06;;;;;;;19.65;12.45;;;23.30;99.90;;;;;;5041241;28;20052;-62
2023/06/12 08:43:35;;;;;;;15.45;12.18;;;23.40;99.90;;;;;;5054458;28;20052;-62
2023/06/12 08:46:04;;;;;;;15.52;11.75;;;23.50;99.90;;;;;;5059917;28;20041;-68
2023/06/12 08:48:32;;;;;;;14.55;11.75;;;23.60;99.90;;;;;;5048954;28;20045;-67
2023/06/12 08:51:02;;;;;;;16.40;11.98;;;23.80;99.90;;;;;;5081031;28;20051;-64
2023/06/12 08:53:30;;;;;;;14.35;10.93;;;23.90;99.90;;;;;;5070454;28;20048;-63
2023/06/12 08:55:58;;;;;;;16.90;12.15;;;24.00;99.90;;;;;;5044226;28;20056;-67
2023/06/12 08:58:26;;;;;;;12.23;10.52;;;24.20;99.90;;;;;;5055682;28;20484;-64
2023/06/12 09:00:54;;;;;;;12.95;11.48;;;24.40;99.90;;;;;;5070595;28;20492;-69
2023/06/12 09:03:22;;;;;;;13.40;10.98;;;24.60;99.90;;;;;;5059845;28;20041;-67
2023/06/12 09:05:52;;;;;;;13.55;10.68;;;24.80;99.90;;;;;;5066840;28;20049;-69
2023/06/12 09:08:20;;;;;;;12.45;10.48;;;25.10;99.90;;;;;;5075799;28;20050;-62
2023/06/12 09:10:49;;;;;;;12.85;10.50;;;25.10;99.90;;;;;;5055358;28;20044;-65
2023/06/12 09:13:17;;;;;;;10.82;9.73;;;25.20;99.90;;;;;;5054384;28;20045;-70
2023/06/12 09:15:52;;;;;;;14.00;9.55;;;25.40;99.90;;;;;;5058363;28;20049;-67
2023/06/12 09:18:20;;;;;;;13.48;10.10;;;25.60;99.90;;;;;;5058066;28;20060;-63
2023/06/12 09:20:49;;;;;;;17.77;10.85;;;25.70;99.90;;;;;;5052016;28;20049;-62
2023/06/12 09:23:17;;;;;;;14.05;10.18;;;25.90;99.90;;;;;;5052991;28;20040;-61
2023/06/12 09:25:45;;;;;;;10.65;9.35;;;26.10;99.90;;;;;;5066857;28;20064;-66
2023/06/12 09:28:36;;;;;;;11.00;8.77;;;26.30;99.90;;;;;;5061092;28;20040;-66
2023/06/12 09:31:05;;;;;;;10.93;9.77;;;26.50;99.90;;;;;;5047269;28;20048;-63
2023/06/12 09:33:39;;;;;;;11.05;9.38;;;26.80;99.90;;;;;;5056893;28;20411;-65
2023/06/12 09:36:12;;;;;;;10.60;9.50;;;26.80;99.90;;;;;;5064349;28;20052;-66
2023/06/12 09:38:40;;;;;;;11.38;9.18;;;26.80;99.90;;;;;;5058803;28;20500;-69
2023/06/12 09:41:09;;;;;;;11.90;8.90;;;26.80;99.90;;;;;;5057957;28;20052;-63
2023/06/12 09:43:37;;;;;;;11.43;9.65;;;27.00;99.90;;;;;;5049067;28;20075;-68
2023/06/12 09:46:08;;;;;;;12.48;9.00;;;26.90;99.90;;;;;;5050328;28;20041;-68
2023/06/12 09:48:38;;;;;;;15.82;9.43;;;27.00;99.90;;;;;;5055379;28;20045;-67
2023/06/12 09:51:07;;;;;;;12.90;8.75;;;27.00;99.90;;;;;;5051500;28;20044;-62
2023/06/12 09:53:37;;;;;;;10.98;7.97;;;27.10;99.90;;;;;;5053894;28;20040;-62
2023/06/12 09:56:07;;;;;;;9.00;7.28;;;27.10;99.90;;;;;;5060993;28;20046;-62
2023/06/12 09:58:37;;;;;;;9.18;8.23;;;27.20;99.90;;;;;;5048208;28;20053;-62
2023/06/12 10:01:07;;;;;;;9.57;7.78;;;27.30;99.90;;;;;;5063497;28;20052;-61
2023/06/12 10:03:37;;;;;;;;;;;27.30;99.90;;;;;;5063737;28;20048;-63
2023/06/12 10:06:08;;;;;;;10.48;7.25;;;27.30;99.90;;;;;;5051752;28;19920;-63
2023/06/12 10:08:36;;;;;;;8.20;7.43;;;27.40;99.90;;;;;;5060472;28;20052;-62
2023/06/12 10:11:06;;;;;;;11.30;7.40;;;27.50;99.90;;;;;;5059662;28;20049;-64
2023/06/12 10:13:35;;;;;;;;;;;27.50;99.90;;;;;;5064978;28;20044;-60
2023/06/12 10:16:04;;;;;;;8.55;7.60;;;27.60;99.90;;;;;;5060511;28;19925;-66
2023/06/12 10:18:33;;;;;;;8.43;6.80;;;27.70;99.90;;;;;;5047640;28;20053;-61
2023/06/12 10:21:03;;;;;;;9.85;7.65;;;27.90;99.90;;;;;;5063421;28;20036;-62
2023/06/12 10:23:31;;;;;;;;;;;28.00;99.90;;;;;;5056073;28;20510;-60
2023/06/12 10:26:03;;;;;;;8.13;6.32;;;28.00;99.90;;;;;;5065849;28;19920;-64
2023/06/12 10:28:32;;;;;;;10.75;6.35;;;28.00;99.90;;;;;;5058064;28;20493;-63
2023/06/12 10:31:18;;;;;;;8.20;6.78;;;28.10;99.90;;;;;;5048513;28;20048;-62
2023/06/12 10:34:09;;;;;;;9.52;6.75;;;28.20;99.90;;;;;;5064100;28;20044;-61
2023/06/12 10:36:42;;;;;;;7.38;6.57;;;28.40;99.90;;;;;;5057998;28;20135;-62
2023/06/12 10:39:24;;;;;;;8.30;7.18;;;28.50;99.90;;;;;;5051373;28;20048;-63
2023/06/12 10:41:59;;;;;;;7.43;6.70;;;28.60;99.90;;;;;;5064530;28;20053;-62
2023/06/12 10:44:52;;;;;;;10.57;7.13;;;28.70;99.90;;;;;;5062346;28;20047;-62
2023/06/12 10:47:22;;;;;;;7.60;6.40;;;28.90;99.90;;;;;;5046968;28;20049;-64
2023/06/12 10:50:03;;;;;;;8.80;7.20;;;28.90;99.90;;;;;;5064604;28;20045;-62
2023/06/12 10:52:32;;;;;;;13.27;7.00;;;29.00;99.90;;;;;;5052053;28;20041;-62
2023/06/12 10:55:32;;;;;;;11.85;7.82;;;29.20;99.90;;;;;;5045315;28;20053;-62
2023/06/12 10:58:19;;;;;;;10.48;7.35;;;29.10;99.90;;;;;;5042776;28;20051;-63
2023/06/12 11:00:52;;;;;;;11.00;7.60;;;29.40;99.90;;;;;;5063603;28;20399;-64
2023/06/12 11:03:28;;;;;;;9.20;6.82;;;29.40;99.90;;;;;;5048209;28;20048;-66
2023/06/12 11:06:08;;;;;;;10.48;6.30;;;29.50;99.90;;;;;;5062059;28;20060;-67
2023/06/12 11:08:36;;;;;;;9.20;6.93;;;29.60;99.90;;;;;;5052643;28;20047;-64
2023/06/12 11:11:11;;;;;;;11.43;6.85;;;29.60;99.70;;;;;;5063188;28;20060;-67
2023/06/12 11:13:40;;;;;;;8.75;7.72;;;29.70;99.30;;;;;;5065306;28;20044;-67
2023/06/12 11:16:12;;;;;;;11.90;7.80;;;29.60;99.30;;;;;;5049162;28;20052;-68
2023/06/12 11:18:40;;;;;;;8.27;7.35;;;29.70;98.80;;;;;;5060831;28;20510;-66
2023/06/12 11:21:10;;;;;;;9.68;7.10;;;29.70;98.90;;;;;;5053197;28;20045;-61
2023/06/12 11:23:42;;;;;;;8.88;7.97;;;29.80;99.00;;;;;;5064372;28;20037;-62
2023/06/12 11:26:10;;;;;;;12.80;7.57;;;30.00;99.30;;;;;;5050470;28;20045;-62
2023/06/12 11:28:38;;;;;;;8.65;7.03;;;30.20;99.00;;;;;;5050786;28;20048;-62
2023/06/12 11:31:07;;;;;;;7.20;6.50;;;30.30;97.90;;;;;;5069026;28;20503;-62
2023/06/12 11:33:40;;;;;;;8.40;6.70;;;30.30;97.80;;;;;;5069227;28;20495;-64
2023/06/12 11:36:08;;;;;;;7.72;6.85;;;30.40;97.70;;;;;;5069620;28;20700;-64
2023/06/12 11:38:36;;;;;;;9.13;6.78;;;30.50;98.30;;;;;;5065508;28;20498;-63
2023/06/12 11:41:11;;;;;;;7.50;6.05;;;30.70;97.70;;;;;;5066861;28;20051;-62
2023/06/12 11:43:42;;;;;;;7.47;6.65;;;30.70;96.30;;;;;;5076014;28;20055;-63
2023/06/12 11:46:10;;;;;;;9.38;6.97;;;30.80;96.20;;;;;;5070566;28;20053;-62
2023/06/12 11:48:38;;;;;;;8.50;6.72;;;30.80;95.20;;;;;;5069603;28;20052;-64
2023/06/12 11:51:09;;;;;;;6.97;6.28;;;30.90;94.40;;;;;;5069193;28;20028;-65
2023/06/12 11:53:37;;;;;;;11.63;6.97;;;31.10;95.70;;;;;;5054487;28;20557;-61
2023/06/12 11:56:05;;;;;;;12.05;7.00;;;31.40;95.30;;;;;;5052774;28;20052;-65
2023/06/12 11:58:39;;;;;;;8.20;6.75;;;31.50;93.70;;;;;;5069368;28;20055;-62
2023/06/12 12:01:21;;;;;;;7.25;6.55;;;31.60;93.40;;;;;;5056270;28;20553;-63
2023/06/12 12:03:50;;;;;;;8.38;6.75;;;31.50;92.10;;;;;;5053073;28;20040;-62
2023/06/12 12:06:25;;;;;;;7.75;6.45;;;31.40;92.90;;;;;;5056889;28;20044;-62
2023/06/12 12:08:56;;;;;;;6.82;5.78;;;31.50;93.00;;;;;;5086522;28;20048;-64
2023/06/12 12:11:30;;;;;;;7.20;5.90;;;31.70;91.80;;;;;;5054030;28;20045;-63
2023/06/12 12:14:03;;;;;;;8.02;6.78;;;32.00;90.90;;;;;;5076954;28;20044;-62
2023/06/12 12:16:40;;;;;;;9.30;6.40;;;32.10;91.30;;;;;;5055918;28;20044;-62
2023/06/12 12:19:29;;;;;;;9.50;6.68;;;32.40;91.80;;;;;;5044845;28;20045;-64
2023/06/12 12:21:58;;;;;;;7.80;6.47;;;32.40;91.80;;;;;;5051497;28;20500;-63
2023/06/12 12:24:25;;;;;;;8.90;6.30;;;32.70;89.90;;;;;;5061905;28;20049;-64
2023/06/12 12:26:54;;;;;;;12.02;6.90;;;32.80;89.90;;;;;;5066821;28;20389;-64
2023/06/12 12:29:23;;;;;;;10.13;6.95;;;32.90;89.60;;;;;;5050300;28;20058;-62
2023/06/12 12:31:50;;;;;;;7.28;6.63;;;33.10;90.20;;;;;;5055706;28;20041;-62
2023/06/12 12:34:18;;;;;;;9.75;6.80;;;33.40;90.00;;;;;;5060466;28;20045;-63
2023/06/12 12:36:47;;;;;;;10.70;7.25;;;33.50;88.70;;;;;;5050383;28;20045;-63
2023/06/12 12:39:15;;;;;;;8.32;6.90;;;33.70;87.70;;;;;;5066528;28;20056;-63
2023/06/12 12:41:43;;;;;;;8.82;6.88;;;34.00;87.60;;;;;;5077974;28;20040;-63
2023/06/12 12:44:11;;;;;;;7.88;6.10;;;34.20;83.40;;;;;;5064534;28;20052;-63
2023/06/12 12:46:39;;;;;;;8.63;6.95;;;34.20;82.10;;;;;;5067210;28;20060;-64
2023/06/12 12:49:07;;;;;;;8.68;6.05;;;34.30;82.90;;;;;;5065412;28;20036;-64